Time;durP1;ratioP1;P1;durP2;ratioP2;P2;SDS_P1;SDS_P2;PMS_P1;PMS_P2;Temp;Humidity;BMP_temperature;BMP_pressure;BME280_temperature;BME280_humidity;BME280_pressure;Samples;Min_cycle;Max_cycle;Signal;HPM_P1;HPM_P2
2023/10/23 00:03:11;;;;;;;6.97;4.35;;;14.50;99.90;;;;;;10000292;28;20101;-70
2023/10/23 00:08:02;;;;;;;8.30;3.55;;;14.40;99.90;;;;;;9987375;28;20494;-72
2023/10/23 00:12:53;;;;;;;6.93;4.53;;;14.40;99.90;;;;;;9993153;28;20030;-70
2023/10/23 00:17:44;;;;;;;6.05;3.17;;;14.40;99.90;;;;;;9985726;28;20050;-70
2023/10/23 00:22:35;;;;;;;6.60;4.05;;;14.40;99.90;;;;;;9999035;28;20072;-70
2023/10/23 00:27:25;;;;;;;7.18;4.28;;;14.40;99.90;;;;;;10000383;28;20030;-74
2023/10/23 00:32:16;;;;;;;6.03;3.72;;;14.40;99.90;;;;;;9982435;28;20440;-74
2023/10/23 00:37:07;;;;;;;5.68;3.30;;;14.40;99.90;;;;;;9978341;28;20070;-75
2023/10/23 00:41:57;;;;;;;6.70;3.83;;;14.40;99.90;;;;;;9967847;28;20695;-73
2023/10/23 00:46:48;;;;;;;5.18;3.47;;;14.30;99.90;;;;;;9987572;28;20034;-73
2023/10/23 00:51:39;;;;;;;8.15;3.83;;;14.20;99.90;;;;;;9999525;28;20062;-73
2023/10/23 00:56:30;;;;;;;5.47;3.15;;;14.20;99.90;;;;;;10004737;28;20068;-70
2023/10/23 01:01:21;;;;;;;5.10;3.25;;;14.30;99.90;;;;;;10003846;28;20026;-70
2023/10/23 01:06:15;;;;;;;12.38;4.07;;;14.20;99.90;;;;;;9997981;28;20022;-74
2023/10/23 01:11:06;;;;;;;4.90;3.40;;;14.10;99.90;;;;;;9996348;28;20057;-71
2023/10/23 01:15:57;;;;;;;5.35;3.25;;;14.10;99.90;;;;;;9992295;28;20257;-72
2023/10/23 01:20:48;;;;;;;6.40;3.72;;;14.00;99.90;;;;;;10005223;28;20104;-75
2023/10/23 01:25:39;;;;;;;4.05;2.45;;;13.90;99.90;;;;;;10006339;28;20107;-73
2023/10/23 01:30:29;;;;;;;4.00;2.90;;;14.00;99.90;;;;;;10003670;28;20041;-68
2023/10/23 01:35:20;;;;;;;5.18;3.72;;;13.90;99.90;;;;;;9989356;28;20069;-71
2023/10/23 01:40:12;;;;;;;3.13;2.00;;;13.90;99.90;;;;;;9991250;28;20504;-70
2023/10/23 01:45:03;;;;;;;3.65;2.08;;;13.80;99.90;;;;;;9985586;28;20040;-69
2023/10/23 01:49:54;;;;;;;5.78;2.95;;;13.70;99.90;;;;;;9990499;28;20042;-70
2023/10/23 01:54:45;;;;;;;4.25;2.35;;;13.70;99.90;;;;;;10007485;28;20118;-70
2023/10/23 01:59:36;;;;;;;4.68;2.33;;;13.60;99.90;;;;;;10002053;28;20038;-69
2023/10/23 02:04:27;;;;;;;3.97;2.33;;;13.60;99.90;;;;;;9997669;28;20114;-69
2023/10/23 02:09:18;;;;;;;3.42;2.10;;;13.50;99.90;;;;;;9994478;28;20130;-70
2023/10/23 02:14:08;;;;;;;8.55;2.83;;;13.50;99.90;;;;;;10000639;28;20033;-68
2023/10/23 02:18:59;;;;;;;3.35;1.95;;;13.50;99.90;;;;;;9995481;28;20472;-72
2023/10/23 02:23:50;;;;;;;6.60;2.33;;;13.50;99.90;;;;;;10006533;28;20034;-70
2023/10/23 02:28:41;;;;;;;3.90;2.55;;;13.40;99.90;;;;;;10007541;28;20104;-72
2023/10/23 02:33:31;;;;;;;4.68;2.17;;;13.40;99.90;;;;;;9981184;28;20034;-73
2023/10/23 02:38:22;;;;;;;2.35;1.50;;;13.40;99.90;;;;;;9991192;28;20034;-72
2023/10/23 02:43:13;;;;;;;2.53;1.60;;;13.40;99.90;;;;;;9989290;28;20476;-75
2023/10/23 02:48:03;;;;;;;3.22;1.55;;;13.30;99.90;;;;;;9984617;28;20037;-73
2023/10/23 02:52:54;;;;;;;2.72;1.50;;;13.30;99.90;;;;;;9999212;28;20046;-73
2023/10/23 02:57:46;;;;;;;6.50;1.80;;;13.30;99.90;;;;;;9981877;28;20580;-72
2023/10/23 03:02:36;;;;;;;3.67;2.08;;;13.30;99.90;;;;;;10003242;28;20102;-69
2023/10/23 03:07:27;;;;;;;5.32;2.97;;;13.20;99.90;;;;;;9994610;28;20505;-67
2023/10/23 03:12:19;;;;;;;3.72;1.90;;;13.20;99.90;;;;;;9994744;28;20030;-68
2023/10/23 03:17:09;;;;;;;3.42;2.33;;;13.20;99.90;;;;;;9970982;28;20100;-67
2023/10/23 03:22:00;;;;;;;5.85;2.45;;;13.10;99.90;;;;;;9990130;28;20026;-70
2023/10/23 03:26:51;;;;;;;4.75;1.92;;;13.00;99.90;;;;;;9992228;28;20385;-70
2023/10/23 03:31:42;;;;;;;5.72;2.00;;;12.90;99.90;;;;;;9992233;28;20308;-69
2023/10/23 03:36:33;;;;;;;4.53;2.20;;;12.70;99.90;;;;;;9977408;28;20045;-69
2023/10/23 03:41:25;;;;;;;3.47;1.88;;;12.70;99.90;;;;;;9989454;28;20112;-70
2023/10/23 03:46:16;;;;;;;3.47;2.17;;;12.80;99.90;;;;;;9984420;28;20033;-70
2023/10/23 03:51:07;;;;;;;4.00;2.40;;;12.70;99.90;;;;;;9993510;28;20133;-69
2023/10/23 03:55:57;;;;;;;3.13;1.83;;;12.60;99.90;;;;;;9988978;28;20089;-69
2023/10/23 04:00:52;;;;;;;2.17;1.73;;;12.60;99.90;;;;;;10003255;28;20046;-68
2023/10/23 04:05:43;;;;;;;3.67;1.85;;;12.60;99.90;;;;;;9998066;28;20030;-68
2023/10/23 04:10:34;;;;;;;3.63;2.20;;;12.60;99.90;;;;;;9991321;28;20492;-69
2023/10/23 04:15:25;;;;;;;4.03;2.03;;;12.60;99.90;;;;;;9991781;28;20029;-70
2023/10/23 04:20:16;;;;;;;5.05;2.50;;;12.50;99.90;;;;;;9974475;28;20592;-69
2023/10/23 04:25:06;;;;;;;5.07;2.22;;;12.50;99.90;;;;;;9973503;28;20043;-70
2023/10/23 04:29:59;;;;;;;5.55;2.83;;;12.40;99.90;;;;;;9989386;28;20036;-69
2023/10/23 04:34:51;;;;;;;4.55;2.20;;;12.50;99.90;;;;;;9981205;28;20117;-69
2023/10/23 04:39:41;;;;;;;3.90;2.40;;;12.40;99.90;;;;;;9982845;28;20515;-69
2023/10/23 04:44:32;;;;;;;10.23;2.60;;;12.40;99.90;;;;;;9984109;28;20025;-69
2023/10/23 04:49:23;;;;;;;3.75;2.30;;;12.40;99.90;;;;;;9980513;28;20066;-68
2023/10/23 04:54:14;;;;;;;3.30;1.83;;;12.40;99.90;;;;;;9994245;28;20053;-70
2023/10/23 04:59:05;;;;;;;5.57;2.38;;;12.30;99.90;;;;;;10006052;28;20046;-68
2023/10/23 05:03:55;;;;;;;4.95;2.47;;;12.20;99.90;;;;;;10002249;28;20518;-67
2023/10/23 05:08:46;;;;;;;5.63;2.90;;;12.20;99.90;;;;;;9986291;28;20303;-68
2023/10/23 05:13:37;;;;;;;4.72;2.15;;;12.10;99.90;;;;;;9989884;28;20496;-68
2023/10/23 05:18:27;;;;;;;5.35;2.67;;;12.00;99.90;;;;;;9968133;28;20048;-70
2023/10/23 05:23:18;;;;;;;4.22;2.63;;;11.90;99.90;;;;;;10007476;28;20621;-68
2023/10/23 05:28:09;;;;;;;5.18;2.28;;;12.00;99.90;;;;;;9985887;28;20023;-68
2023/10/23 05:32:59;;;;;;;5.60;3.05;;;12.10;99.90;;;;;;9982006;28;20123;-68
2023/10/23 05:37:50;;;;;;;3.20;2.10;;;12.10;99.90;;;;;;9985126;28;20330;-68
2023/10/23 05:42:40;;;;;;;4.15;2.40;;;12.10;99.90;;;;;;9989267;28;20104;-66
2023/10/23 05:47:31;;;;;;;4.45;2.60;;;12.10;99.90;;;;;;9982468;28;20109;-67
2023/10/23 05:52:22;;;;;;;4.40;2.25;;;11.90;99.90;;;;;;9972480;28;20133;-68
2023/10/23 05:57:12;;;;;;;5.50;2.22;;;11.70;99.90;;;;;;9988444;28;20038;-68
2023/10/23 06:02:03;;;;;;;4.90;2.13;;;11.70;99.90;;;;;;9981863;28;20065;-68
2023/10/23 06:06:54;;;;;;;4.28;3.13;;;11.60;99.90;;;;;;9982669;28;20034;-68
2023/10/23 06:11:44;;;;;;;5.50;3.13;;;11.50;99.90;;;;;;9988832;28;20030;-69
2023/10/23 06:16:35;;;;;;;4.55;3.25;;;11.50;99.90;;;;;;9983658;28;20101;-69
2023/10/23 06:21:26;;;;;;;2.72;2.05;;;11.50;99.90;;;;;;9999914;28;20053;-70
2023/10/23 06:26:16;;;;;;;5.18;2.60;;;11.50;99.90;;;;;;10001581;28;20030;-71
2023/10/23 06:31:11;;;;;;;5.63;3.90;;;11.60;99.90;;;;;;9995968;28;20026;-70
2023/10/23 06:36:03;;;;;;;6.65;2.38;;;11.60;99.90;;;;;;9968444;28;20034;-69
2023/10/23 06:40:54;;;;;;;5.53;2.22;;;11.70;99.90;;;;;;9967045;28;20023;-68
2023/10/23 06:45:45;;;;;;;6.35;2.78;;;11.60;99.90;;;;;;9980485;28;20041;-69
2023/10/23 06:50:38;;;;;;;7.13;3.35;;;11.60;99.90;;;;;;9967950;28;20443;-70
2023/10/23 06:55:28;;;;;;;7.75;3.55;;;11.60;99.90;;;;;;9976154;28;20598;-68
2023/10/23 07:00:19;;;;;;;7.18;3.13;;;11.50;99.90;;;;;;9997922;28;20121;-69
2023/10/23 07:05:10;;;;;;;6.10;2.55;;;11.60;99.90;;;;;;9982888;28;20041;-68
2023/10/23 07:10:01;;;;;;;7.70;3.60;;;11.60;99.90;;;;;;9985232;28;20030;-69
2023/10/23 07:14:52;;;;;;;5.47;2.90;;;11.70;99.90;;;;;;9987592;28;20061;-70
2023/10/23 07:19:43;;;;;;;5.45;2.65;;;11.70;99.90;;;;;;9961432;28;20158;-68
2023/10/23 07:24:34;;;;;;;5.85;2.67;;;11.60;99.90;;;;;;9989514;28;20110;-68
2023/10/23 07:29:25;;;;;;;3.58;2.58;;;11.60;99.90;;;;;;9985519;28;20041;-68
2023/10/23 07:34:16;;;;;;;7.03;2.40;;;11.60;99.90;;;;;;9977948;28;20548;-67
2023/10/23 07:39:08;;;;;;;6.05;3.40;;;11.50;99.90;;;;;;9977605;28;20101;-67
2023/10/23 07:43:58;;;;;;;5.55;2.45;;;11.60;99.90;;;;;;9973624;28;20119;-67
2023/10/23 07:48:49;;;;;;;4.32;2.25;;;11.70;99.90;;;;;;9978241;28;20460;-67
2023/10/23 07:53:40;;;;;;;4.38;2.42;;;11.50;99.90;;;;;;9984023;28;20031;-68
2023/10/23 07:58:31;;;;;;;5.70;2.13;;;11.60;99.90;;;;;;9987030;28;20053;-69
2023/10/23 08:03:22;;;;;;;4.82;2.22;;;11.60;99.90;;;;;;9983711;28;20041;-69
2023/10/23 08:08:13;;;;;;;4.00;2.35;;;11.40;99.90;;;;;;9979676;28;20105;-68
2023/10/23 08:13:04;;;;;;;2.83;2.35;;;11.30;99.90;;;;;;9974054;28;20033;-69
2023/10/23 08:17:54;;;;;;;3.67;2.00;;;11.50;99.90;;;;;;9962807;28;20491;-69
2023/10/23 08:22:46;;;;;;;4.72;2.28;;;11.40;99.90;;;;;;9994272;28;20022;-72
2023/10/23 08:27:37;;;;;;;4.35;2.53;;;11.50;99.90;;;;;;9999503;28;20053;-70
2023/10/23 08:32:34;;;;;;;3.17;2.13;;;11.60;99.90;;;;;;9990292;28;20030;-70
2023/10/23 08:37:25;;;;;;;3.30;2.05;;;11.60;99.90;;;;;;9978722;28;20129;-70
2023/10/23 08:42:16;;;;;;;4.00;2.30;;;11.70;99.90;;;;;;9976266;28;20126;-70
2023/10/23 08:47:07;;;;;;;5.70;2.50;;;11.80;99.90;;;;;;9977242;28;20038;-69
2023/10/23 08:51:59;;;;;;;3.53;2.03;;;11.90;99.90;;;;;;9983966;28;20050;-69
2023/10/23 08:56:57;;;;;;;6.13;2.15;;;11.80;99.90;;;;;;9992308;28;20054;-70
2023/10/23 09:01:48;;;;;;;2.60;1.95;;;11.80;99.90;;;;;;9979558;28;20199;-70
2023/10/23 09:06:39;;;;;;;7.25;2.95;;;11.90;99.90;;;;;;9996188;28;20562;-70
2023/10/23 09:11:46;;;;;;;5.68;1.98;;;11.80;99.90;;;;;;9975319;28;20126;-69
2023/10/23 09:16:38;;;;;;;4.88;2.28;;;11.90;99.90;;;;;;9985461;28;20165;-70
2023/10/23 09:21:32;;;;;;;2.60;1.92;;;12.00;99.90;;;;;;9996370;28;20093;-69
2023/10/23 09:26:26;;;;;;;6.13;2.33;;;12.00;99.90;;;;;;9998310;28;20014;-68
2023/10/23 09:31:18;;;;;;;6.32;2.30;;;12.00;99.90;;;;;;9994033;28;20774;-69
2023/10/23 09:36:09;;;;;;;9.45;2.53;;;12.00;99.90;;;;;;9983109;28;20117;-69
2023/10/23 09:41:00;;;;;;;5.47;2.47;;;11.90;99.90;;;;;;9959855;28;20057;-68
2023/10/23 09:45:52;;;;;;;5.25;2.90;;;12.00;99.90;;;;;;9983191;28;20030;-70
2023/10/23 09:50:48;;;;;;;3.92;2.67;;;12.10;99.90;;;;;;9964612;28;20046;-70
2023/10/23 09:55:41;;;;;;;4.75;2.58;;;12.10;99.90;;;;;;10009188;28;20034;-70
2023/10/23 10:00:33;;;;;;;3.25;2.17;;;12.10;99.90;;;;;;9973501;28;20230;-69
2023/10/23 10:05:43;;;;;;;6.15;2.70;;;12.20;99.90;;;;;;9992577;28;20033;-69
2023/10/23 10:10:36;;;;;;;4.43;2.50;;;12.30;99.90;;;;;;9967588;28;20069;-69
2023/10/23 10:15:27;;;;;;;9.68;4.57;;;12.30;99.90;;;;;;9980391;28;20062;-68
2023/10/23 10:20:22;;;;;;;8.95;3.55;;;12.30;99.90;;;;;;9959586;28;20081;-70
2023/10/23 10:25:13;;;;;;;5.38;3.28;;;12.40;99.90;;;;;;9997426;28;20031;-70
2023/10/23 10:30:05;;;;;;;6.03;3.20;;;12.60;99.90;;;;;;9997307;28;20076;-70
2023/10/23 10:35:00;;;;;;;6.93;4.07;;;12.60;99.90;;;;;;9979129;28;20026;-70
2023/10/23 10:39:51;;;;;;;6.65;4.10;;;12.60;99.90;;;;;;9970466;28;20053;-70
2023/10/23 10:45:01;;;;;;;5.35;4.22;;;12.80;99.90;;;;;;9976924;28;20031;-70
2023/10/23 10:49:52;;;;;;;9.77;3.85;;;12.70;99.90;;;;;;9983087;28;20047;-69
2023/10/23 10:54:43;;;;;;;7.93;4.00;;;12.70;99.90;;;;;;9993688;28;20033;-69
2023/10/23 10:59:37;;;;;;;6.97;3.08;;;12.70;99.90;;;;;;10001956;28;20120;-70
2023/10/23 11:04:28;;;;;;;6.20;4.38;;;12.60;99.90;;;;;;9961277;28;20030;-68
2023/10/23 11:09:20;;;;;;;4.95;3.13;;;12.60;99.90;;;;;;9983598;28;20030;-70
2023/10/23 11:14:14;;;;;;;10.45;4.63;;;12.60;99.90;;;;;;9985810;28;20038;-74
2023/10/23 11:19:05;;;;;;;6.72;3.35;;;12.50;99.90;;;;;;9964628;28;20428;-73
2023/10/23 11:23:55;;;;;;;7.05;3.10;;;12.50;99.90;;;;;;9981804;28;20044;-80
2023/10/23 11:28:47;;;;;;;5.72;3.05;;;12.50;99.90;;;;;;9979890;28;20041;-76
2023/10/23 11:33:37;;;;;;;5.93;4.07;;;12.40;99.90;;;;;;9966694;28;20018;-76
2023/10/23 11:38:28;;;;;;;3.92;3.22;;;12.50;99.90;;;;;;9981692;28;20541;-69
2023/10/23 11:43:23;;;;;;;4.90;3.45;;;12.60;99.90;;;;;;9976884;28;20454;-69
2023/10/23 11:48:14;;;;;;;4.95;3.22;;;12.70;99.90;;;;;;9973391;28;20266;-69
2023/10/23 11:53:04;;;;;;;5.05;3.53;;;12.70;99.90;;;;;;9988425;28;20181;-69
2023/10/23 11:57:56;;;;;;;7.05;2.92;;;12.70;99.90;;;;;;9987570;28;20129;-70
2023/10/23 12:02:47;;;;;;;5.25;2.88;;;12.80;99.90;;;;;;9979719;28;20061;-70
2023/10/23 12:12:48;;;;;;;3.78;2.67;;;12.90;99.90;;;;;;9927789;28;20050;-75
2023/10/23 12:17:39;;;;;;;4.85;3.22;;;12.80;99.90;;;;;;9941995;28;20492;-74
2023/10/23 12:22:30;;;;;;;4.72;3.20;;;12.80;99.90;;;;;;9937481;28;20488;-75
2023/10/23 12:27:20;;;;;;;5.65;3.58;;;12.80;99.90;;;;;;9941324;28;20042;-75
2023/10/23 12:32:13;;;;;;;4.10;2.92;;;12.50;99.90;;;;;;9953150;28;20056;-73
2023/10/23 12:37:04;;;;;;;7.22;2.90;;;12.40;99.90;;;;;;9947729;28;20623;-73
2023/10/23 12:41:54;;;;;;;5.65;3.10;;;12.30;99.90;;;;;;9947205;28;20138;-74
2023/10/23 12:46:45;;;;;;;3.67;2.40;;;12.30;99.90;;;;;;9944732;28;20389;-72
2023/10/23 12:51:36;;;;;;;4.72;2.83;;;12.30;99.90;;;;;;9941979;28;20035;-73
2023/10/23 12:56:26;;;;;;;7.63;2.70;;;12.40;99.90;;;;;;9942254;28;20041;-73
2023/10/23 13:01:17;;;;;;;5.75;3.13;;;12.50;99.90;;;;;;9944426;28;20104;-72
2023/10/23 13:06:08;;;;;;;4.68;2.67;;;12.50;99.90;;;;;;9939636;28;20031;-74
2023/10/23 13:10:59;;;;;;;5.35;3.25;;;12.50;99.90;;;;;;9966434;28;20053;-73
2023/10/23 13:15:49;;;;;;;4.90;2.65;;;12.50;99.90;;;;;;9983751;28;20030;-78
2023/10/23 13:20:40;;;;;;;5.57;2.90;;;12.60;99.90;;;;;;9978473;28;20510;-78
2023/10/23 13:25:32;;;;;;;7.38;3.55;;;12.70;99.90;;;;;;9980969;28;20029;-77
2023/10/23 13:30:22;;;;;;;6.30;3.20;;;12.70;99.90;;;;;;9981962;28;20504;-76
2023/10/23 13:35:15;;;;;;;6.97;3.08;;;12.90;99.90;;;;;;9980294;28;20131;-78
2023/10/23 13:40:07;;;;;;;5.43;3.20;;;12.80;99.90;;;;;;9978511;28;20145;-76
2023/10/23 13:44:57;;;;;;;4.28;2.55;;;13.00;99.90;;;;;;9979103;28;20473;-75
2023/10/23 13:49:48;;;;;;;5.78;2.60;;;13.10;99.90;;;;;;9979509;28;20157;-78
2023/10/23 13:54:39;;;;;;;6.43;3.00;;;13.00;99.90;;;;;;9981013;28;20030;-75
2023/10/23 13:59:29;;;;;;;3.95;2.83;;;12.90;99.90;;;;;;9980694;28;20451;-77
2023/10/23 14:04:20;;;;;;;3.00;2.25;;;13.00;99.90;;;;;;9977969;28;20034;-79
2023/10/23 14:09:11;;;;;;;3.92;2.80;;;12.90;99.90;;;;;;9981088;28;20405;-76
2023/10/23 14:14:02;;;;;;;5.57;2.63;;;12.90;99.90;;;;;;9964676;28;20021;-76
2023/10/23 14:18:52;;;;;;;3.50;2.65;;;13.00;99.90;;;;;;9977870;28;20445;-76
2023/10/23 14:23:43;;;;;;;5.65;2.83;;;13.00;99.90;;;;;;9960773;28;20054;-76
2023/10/23 14:28:34;;;;;;;5.95;3.20;;;13.10;99.90;;;;;;9980786;28;20034;-75
2023/10/23 14:33:27;;;;;;;8.23;2.90;;;13.00;99.90;;;;;;9978890;28;20018;-74
2023/10/23 14:38:17;;;;;;;5.18;2.45;;;13.10;99.90;;;;;;9979339;28;20038;-76
2023/10/23 14:43:08;;;;;;;6.45;2.40;;;13.20;99.90;;;;;;9976347;28;20508;-77
2023/10/23 14:47:59;;;;;;;2.95;2.55;;;13.00;99.90;;;;;;9971072;28;20062;-83
2023/10/23 14:52:49;;;;;;;7.40;2.97;;;13.00;99.90;;;;;;9981076;28;20030;-80
2023/10/23 14:57:40;;;;;;;4.72;2.53;;;13.10;99.90;;;;;;9985031;28;20042;-81
2023/10/23 15:02:31;;;;;;;4.10;2.78;;;13.10;99.90;;;;;;9962299;28;20084;-79
2023/10/23 15:07:21;;;;;;;6.55;3.25;;;13.10;99.90;;;;;;9967488;28;20037;-78
2023/10/23 15:12:12;;;;;;;6.20;3.25;;;13.10;99.90;;;;;;9973094;28;20068;-79
2023/10/23 15:17:03;;;;;;;5.95;3.20;;;13.10;99.90;;;;;;9981379;28;20077;-80
2023/10/23 15:21:54;;;;;;;5.90;3.28;;;13.10;99.90;;;;;;9985554;28;20073;-79
2023/10/23 15:26:45;;;;;;;4.13;2.58;;;13.20;99.90;;;;;;9986455;28;20029;-78
2023/10/23 15:31:35;;;;;;;4.97;2.47;;;13.30;99.90;;;;;;9977893;28;20048;-80
2023/10/23 15:36:27;;;;;;;5.85;2.20;;;13.30;99.90;;;;;;9973076;28;20045;-75
2023/10/23 15:41:18;;;;;;;6.35;2.70;;;13.30;99.90;;;;;;9969350;28;20436;-81
2023/10/23 15:46:15;;;;;;;3.78;2.63;;;13.30;99.90;;;;;;9978314;28;20058;-76
2023/10/23 15:51:05;;;;;;;4.57;2.67;;;13.30;99.90;;;;;;9977664;28;20088;-72
2023/10/23 15:55:56;;;;;;;5.22;2.90;;;13.20;99.90;;;;;;9974680;28;20447;-76
2023/10/23 16:00:47;;;;;;;3.83;2.22;;;13.10;99.90;;;;;;9976158;28;20035;-77
2023/10/23 16:05:38;;;;;;;6.57;2.20;;;13.00;99.90;;;;;;9975504;28;20056;-74
2023/10/23 16:10:29;;;;;;;6.05;2.42;;;13.10;99.90;;;;;;9973839;28;20042;-73
2023/10/23 16:15:23;;;;;;;3.90;2.03;;;13.10;99.90;;;;;;9977935;28;20121;-75
2023/10/23 16:20:14;;;;;;;3.55;2.42;;;13.10;99.90;;;;;;9976588;28;20050;-78
2023/10/23 16:25:05;;;;;;;5.32;2.28;;;13.30;99.90;;;;;;9974303;28;20566;-75
2023/10/23 16:29:57;;;;;;;4.43;2.53;;;13.30;99.90;;;;;;9975848;28;20038;-74
2023/10/23 16:34:48;;;;;;;6.00;2.70;;;13.10;99.90;;;;;;9976713;28;20113;-75
2023/10/23 16:39:39;;;;;;;5.82;2.53;;;13.20;99.90;;;;;;9976098;28;20050;-76
2023/10/23 16:44:30;;;;;;;5.15;2.20;;;13.20;99.90;;;;;;9960847;28;20026;-75
2023/10/23 16:49:20;;;;;;;5.28;3.00;;;13.10;99.90;;;;;;9976863;28;20057;-76
2023/10/23 16:54:22;;;;;;;4.90;2.75;;;13.10;99.90;;;;;;9959548;28;20049;-76
2023/10/23 16:59:12;;;;;;;4.32;2.92;;;13.10;99.90;;;;;;9975534;28;20053;-76
2023/10/23 17:04:03;;;;;;;7.40;3.35;;;13.10;99.90;;;;;;9970403;28;20037;-76
2023/10/23 17:08:54;;;;;;;5.38;2.47;;;13.20;99.90;;;;;;9960403;28;20046;-77
2023/10/23 17:13:45;;;;;;;6.40;3.65;;;13.30;99.90;;;;;;9977076;28;20034;-77
2023/10/23 17:18:35;;;;;;;6.07;2.58;;;13.30;99.90;;;;;;9980352;28;20296;-76
2023/10/23 17:23:26;;;;;;;7.13;2.97;;;13.20;99.90;;;;;;9981696;28;20046;-75
2023/10/23 17:28:17;;;;;;;6.05;2.40;;;13.10;99.90;;;;;;9965378;28;20034;-76
2023/10/23 17:33:08;;;;;;;4.60;3.05;;;13.10;99.90;;;;;;9982806;28;20042;-77
2023/10/23 17:37:58;;;;;;;5.68;3.00;;;13.20;99.90;;;;;;9974093;28;20043;-76
2023/10/23 17:42:49;;;;;;;9.27;3.88;;;13.20;99.90;;;;;;9975169;28;20495;-75
2023/10/23 17:47:40;;;;;;;5.53;3.13;;;13.20;99.90;;;;;;9979405;28;20481;-73
2023/10/23 17:52:30;;;;;;;5.25;3.03;;;13.20;99.90;;;;;;9981526;28;20597;-73
2023/10/23 17:57:21;;;;;;;7.45;2.95;;;13.30;99.90;;;;;;9982630;28;20042;-73
2023/10/23 18:02:12;;;;;;;7.40;3.95;;;13.20;99.90;;;;;;9978097;28;20030;-73
2023/10/23 18:07:03;;;;;;;5.13;3.15;;;13.20;99.90;;;;;;9978056;28;20485;-73
2023/10/23 18:11:54;;;;;;;9.98;5.20;;;13.10;99.90;;;;;;9988156;28;20193;-72
2023/10/23 18:16:44;;;;;;;6.65;3.20;;;13.10;99.90;;;;;;9980606;28;20026;-72
2023/10/23 18:21:35;;;;;;;7.45;3.28;;;13.10;99.90;;;;;;9978469;28;20050;-73
2023/10/23 18:26:26;;;;;;;6.10;3.67;;;13.10;99.90;;;;;;9962843;28;20081;-75
2023/10/23 18:31:16;;;;;;;5.43;3.67;;;13.20;99.90;;;;;;9973997;28;20528;-73
2023/10/23 18:36:15;;;;;;;7.35;3.25;;;13.30;99.90;;;;;;9978060;28;20030;-74
2023/10/23 18:41:06;;;;;;;4.47;2.85;;;13.40;99.90;;;;;;9969159;28;20058;-73
2023/10/23 18:45:57;;;;;;;5.18;3.50;;;13.40;99.90;;;;;;9969525;28;20037;-77
2023/10/23 18:50:47;;;;;;;7.35;3.47;;;13.40;99.90;;;;;;9979936;28;20102;-74
2023/10/23 18:55:38;;;;;;;5.80;3.25;;;13.40;99.90;;;;;;9980037;28;20388;-72
2023/10/23 19:00:29;;;;;;;9.13;3.35;;;13.30;99.90;;;;;;9968391;28;20046;-74
2023/10/23 19:05:20;;;;;;;7.05;3.35;;;13.30;99.90;;;;;;9979631;28;20026;-73
2023/10/23 19:10:11;;;;;;;6.32;3.13;;;13.40;99.90;;;;;;9985750;28;20433;-72
2023/10/23 19:15:02;;;;;;;4.75;3.03;;;13.30;99.90;;;;;;9973981;28;20539;-72
2023/10/23 19:19:53;;;;;;;5.65;2.92;;;13.30;99.90;;;;;;9973906;28;20085;-76
2023/10/23 19:24:44;;;;;;;6.57;2.70;;;13.30;99.90;;;;;;9972273;28;20499;-73
2023/10/23 19:29:34;;;;;;;4.78;2.95;;;13.30;99.90;;;;;;9978100;28;20190;-72
2023/10/23 19:34:30;;;;;;;5.45;2.75;;;13.30;99.90;;;;;;9978424;28;20080;-72
2023/10/23 19:39:21;;;;;;;8.68;2.70;;;13.30;99.90;;;;;;9973994;28;20114;-74
2023/10/23 19:44:12;;;;;;;6.57;3.28;;;13.30;99.90;;;;;;9971084;28;20038;-72
2023/10/23 19:49:03;;;;;;;4.55;3.13;;;13.30;99.90;;;;;;9968796;28;20400;-72
2023/10/23 19:53:54;;;;;;;5.50;3.10;;;13.30;99.90;;;;;;9952427;28;20404;-74
2023/10/23 19:58:44;;;;;;;6.85;3.40;;;13.30;99.90;;;;;;9954351;28;20441;-71
2023/10/23 20:03:35;;;;;;;6.28;3.88;;;13.30;99.90;;;;;;9958715;28;20107;-72
2023/10/23 20:08:27;;;;;;;5.43;3.38;;;13.20;99.90;;;;;;9971249;28;20567;-73
2023/10/23 20:13:20;;;;;;;6.82;3.60;;;13.20;99.90;;;;;;9975016;28;20029;-73
2023/10/23 20:18:12;;;;;;;4.50;3.13;;;13.10;99.90;;;;;;9976572;28;20089;-73
2023/10/23 20:23:02;;;;;;;5.43;3.40;;;13.10;99.90;;;;;;9969797;28;20434;-74
2023/10/23 20:27:53;;;;;;;5.15;3.83;;;13.10;99.90;;;;;;9958366;28;20039;-73
2023/10/23 20:32:43;;;;;;;4.28;3.50;;;13.10;99.90;;;;;;9977142;28;20023;-74
2023/10/23 20:37:35;;;;;;;6.03;3.40;;;13.10;99.90;;;;;;9971643;28;20046;-77
2023/10/23 20:42:37;;;;;;;10.13;4.47;;;13.20;99.90;;;;;;9973171;28;20031;-77
2023/10/23 20:47:28;;;;;;;7.03;3.88;;;13.20;99.90;;;;;;9979261;28;20440;-77
2023/10/23 20:52:19;;;;;;;5.70;3.13;;;13.10;99.90;;;;;;9979856;28;20077;-73
2023/10/23 20:57:09;;;;;;;5.85;3.88;;;13.10;99.90;;;;;;9967017;28;20066;-72
2023/10/23 21:02:03;;;;;;;6.38;4.15;;;13.10;99.90;;;;;;9984105;28;20026;-73
2023/10/23 21:06:54;;;;;;;8.35;3.95;;;13.10;99.90;;;;;;9964135;28;20057;-74
2023/10/23 21:11:48;;;;;;;6.35;3.83;;;13.10;99.90;;;;;;9973572;28;20065;-73
2023/10/23 21:16:41;;;;;;;4.65;3.90;;;13.10;99.90;;;;;;9974062;28;20492;-75
2023/10/23 21:21:35;;;;;;;4.22;3.05;;;13.00;99.90;;;;;;9958370;28;20027;-74
2023/10/23 21:26:30;;;;;;;6.10;4.70;;;13.10;99.90;;;;;;9983227;28;20109;-78
2023/10/23 21:31:23;;;;;;;7.27;4.17;;;13.10;99.90;;;;;;9983190;28;20080;-75
2023/10/23 21:36:13;;;;;;;7.43;4.25;;;13.10;99.90;;;;;;9979735;28;20408;-77
2023/10/23 21:41:04;;;;;;;5.90;4.75;;;13.10;99.90;;;;;;9982689;28;20034;-77
2023/10/23 21:45:55;;;;;;;6.38;3.78;;;13.10;99.90;;;;;;9983142;28;20026;-75
2023/10/23 21:50:47;;;;;;;6.70;4.20;;;13.10;99.90;;;;;;9979995;28;20038;-75
2023/10/23 21:55:38;;;;;;;10.45;4.13;;;13.20;99.90;;;;;;9964817;28;20512;-75
2023/10/23 22:00:30;;;;;;;8.82;4.32;;;13.10;99.90;;;;;;9981099;28;20356;-72
2023/10/23 22:05:21;;;;;;;6.88;4.25;;;13.20;99.90;;;;;;9974309;28;20058;-73
2023/10/23 22:10:13;;;;;;;4.95;3.70;;;13.20;99.90;;;;;;9976942;28;20062;-73
2023/10/23 22:15:05;;;;;;;6.63;4.28;;;13.20;99.90;;;;;;9985486;28;20044;-72
2023/10/23 22:19:55;;;;;;;8.52;3.88;;;13.20;99.90;;;;;;9977010;28;20050;-72
2023/10/23 22:24:46;;;;;;;6.38;3.97;;;13.20;99.90;;;;;;9980424;28;20030;-72
2023/10/23 22:29:37;;;;;;;6.53;4.05;;;13.10;99.90;;;;;;9980069;28;20034;-73
2023/10/23 22:34:27;;;;;;;6.18;4.30;;;13.20;99.90;;;;;;9981543;28;20041;-72
2023/10/23 22:39:18;;;;;;;5.60;4.13;;;13.10;99.90;;;;;;9981902;28;20042;-73
2023/10/23 22:44:09;;;;;;;5.97;3.75;;;13.10;99.90;;;;;;9976442;28;20448;-73
2023/10/23 22:49:00;;;;;;;4.50;3.28;;;13.10;99.90;;;;;;9980038;28;20062;-72
2023/10/23 22:53:51;;;;;;;6.68;4.68;;;13.00;99.90;;;;;;9979968;28;20258;-73
2023/10/23 22:58:42;;;;;;;5.72;3.45;;;13.00;99.90;;;;;;9976472;28;20042;-72
2023/10/23 23:03:33;;;;;;;5.28;3.55;;;13.00;99.90;;;;;;9978291;28;20023;-72
2023/10/23 23:08:26;;;;;;;4.80;3.58;;;13.10;99.90;;;;;;9959221;28;20207;-72
2023/10/23 23:13:17;;;;;;;7.00;3.92;;;13.00;99.90;;;;;;9975347;28;20022;-72
2023/10/23 23:18:09;;;;;;;4.68;3.42;;;13.00;99.90;;;;;;9975319;28;20050;-73
2023/10/23 23:23:00;;;;;;;5.53;3.35;;;13.00;99.90;;;;;;9978922;28;20088;-73
2023/10/23 23:27:51;;;;;;;6.95;3.67;;;13.00;99.90;;;;;;9978338;28;20080;-73
2023/10/23 23:32:42;;;;;;;5.35;3.45;;;13.00;99.90;;;;;;9964389;28;20018;-73
2023/10/23 23:37:33;;;;;;;4.63;3.45;;;13.10;99.90;;;;;;9978431;28;20502;-73
2023/10/23 23:42:23;;;;;;;5.57;3.45;;;13.10;99.90;;;;;;9959236;28;20122;-73
2023/10/23 23:47:14;;;;;;;6.93;3.75;;;13.10;99.90;;;;;;9976002;28;20041;-73
2023/10/23 23:52:05;;;;;;;6.47;4.05;;;13.10;99.90;;;;;;9978035;28;20034;-73
2023/10/23 23:56:56;;;;;;;7.38;4.85;;;13.10;99.90;;;;;;9959412;28;20034;-72
